createdAt,value
2022-07-30T00:02:45.371Z,98066.53
2022-07-30T00:06:47.448Z,98062.31
2022-07-30T00:10:50.327Z,98064.09
2022-07-30T00:14:52.360Z,98060.06
2022-07-30T00:18:54.408Z,98050.84
2022-07-30T00:22:56.896Z,98051.16
2022-07-30T00:26:59.134Z,98045.75
2022-07-30T00:31:01.504Z,98038.34
2022-07-30T00:35:04.161Z,98030.69
2022-07-30T00:39:06.529Z,98027.56
2022-07-30T00:43:08.612Z,98022.88
2022-07-30T00:47:10.648Z,98016.22
2022-07-30T00:51:12.796Z,98016.00
2022-07-30T00:55:16.068Z,98010.41
2022-07-30T00:59:18.147Z,97999.72
2022-07-30T01:03:20.232Z,98002.03
2022-07-30T01:07:22.443Z,98002.41
2022-07-30T01:11:35.636Z,98005.22
2022-07-30T01:15:38.601Z,98008.88
2022-07-30T01:19:48.544Z,98005.78
2022-07-30T01:23:53.492Z,98007.56
2022-07-30T01:28:01.013Z,97999.94
2022-07-30T01:32:07.258Z,98004.56
2022-07-30T01:36:14.109Z,98004.78
2022-07-30T01:40:16.633Z,98010.25
2022-07-30T01:44:23.714Z,98010.53
2022-07-30T01:48:27.805Z,98022.38
2022-07-30T01:52:33.828Z,98029.56
2022-07-30T01:56:37.721Z,98029.75
2022-07-30T02:00:43.531Z,98035.03
2022-07-30T02:04:45.982Z,98030.13
2022-07-30T02:09:01.487Z,98039.75
2022-07-30T02:13:10.095Z,98036.06
2022-07-30T02:17:20.548Z,98040.41
2022-07-30T02:21:24.363Z,98035.41
2022-07-30T02:25:44.313Z,98033.72
2022-07-30T02:29:48.583Z,98034.66
2022-07-30T02:33:54.706Z,98031.44
2022-07-30T02:37:58.196Z,98040.50
2022-07-30T02:42:00.944Z,98033.13
2022-07-30T02:46:04.840Z,98040.75
2022-07-30T02:50:27.843Z,98040.69
2022-07-30T02:54:31.461Z,98038.59
2022-07-30T02:58:35.985Z,98039.16
2022-07-30T03:02:39.593Z,98036.66
2022-07-30T03:06:43.126Z,98043.66
2022-07-30T03:10:46.084Z,98041.59
2022-07-30T03:14:48.244Z,98046.63
2022-07-30T03:18:54.177Z,98042.09
2022-07-30T03:22:58.769Z,98051.09
2022-07-30T03:27:04.600Z,98045.63
2022-07-30T03:31:08.061Z,98056.28
2022-07-30T03:35:17.302Z,98052.34
2022-07-30T03:39:22.064Z,98058.75
2022-07-30T03:43:33.618Z,98055.84
2022-07-30T03:47:39.507Z,98056.53
2022-07-30T03:51:42.120Z,98055.47
2022-07-30T03:55:44.394Z,98068.59
2022-07-30T04:00:14.539Z,98062.28
2022-07-30T04:04:19.933Z,98072.91
2022-07-30T04:08:23.545Z,98082.75
2022-07-30T04:12:26.595Z,98078.47
2022-07-30T04:16:52.099Z,98085.00
2022-07-30T04:20:59.651Z,98088.38
2022-07-30T04:25:03.621Z,98088.88
2022-07-30T04:29:09.210Z,98086.13
2022-07-30T04:33:16.763Z,98093.25
2022-07-30T04:37:32.273Z,98100.91
2022-07-30T04:41:48.997Z,98104.31
2022-07-30T04:46:24.511Z,98105.03
2022-07-30T04:50:29.152Z,98105.97
2022-07-30T04:54:39.282Z,98113.66
2022-07-30T04:58:43.212Z,98121.25
2022-07-30T05:02:49.045Z,98117.06
2022-07-30T05:06:52.357Z,98117.00
2022-07-30T05:10:55.164Z,98121.34
2022-07-30T05:14:58.873Z,98124.56
2022-07-30T05:19:00.946Z,98122.16
2022-07-30T05:23:04.018Z,98121.91
2022-07-30T05:27:06.226Z,98132.03
2022-07-30T05:31:08.865Z,98133.28
2022-07-30T05:35:12.120Z,98135.13
2022-07-30T05:39:14.473Z,98128.66
2022-07-30T05:43:28.490Z,98137.22
2022-07-30T05:47:30.584Z,98140.41
2022-07-30T05:51:32.710Z,98141.75
2022-07-30T05:55:36.309Z,98137.66
2022-07-30T06:00:11.559Z,98134.69
2022-07-30T06:04:19.530Z,98140.72
2022-07-30T06:08:24.911Z,98139.06
2022-07-30T06:12:30.980Z,98133.44
2022-07-30T06:16:33.004Z,98144.28
2022-07-30T06:20:35.315Z,98129.69
2022-07-30T06:24:50.541Z,98140.19
2022-07-30T06:28:56.239Z,98139.41
2022-07-30T06:33:04.251Z,98147.38
2022-07-30T06:37:06.307Z,98143.63
2022-07-30T06:41:09.064Z,98151.56
2022-07-30T06:45:23.115Z,98136.03
2022-07-30T06:49:45.383Z,98155.59
2022-07-30T06:53:48.242Z,98142.22
2022-07-30T06:57:50.233Z,98150.66
2022-07-30T07:02:12.179Z,98149.16
2022-07-30T07:06:53.188Z,98150.50
2022-07-30T07:11:03.639Z,98145.69
2022-07-30T07:15:09.095Z,98152.28
2022-07-30T07:19:11.119Z,98154.50
2022-07-30T07:23:16.222Z,98158.56
2022-07-30T07:27:22.544Z,98148.38
2022-07-30T07:32:06.449Z,98161.56
2022-07-30T07:35:50.495Z,98162.28
2022-07-30T07:40:01.934Z,98163.16
2022-07-30T07:44:07.432Z,98160.47
2022-07-30T07:48:11.292Z,98163.28
2022-07-30T07:52:39.182Z,98163.41
2022-07-30T07:56:41.438Z,98163.97
2022-07-30T08:00:46.065Z,98170.19
2022-07-30T08:04:48.858Z,98157.50
2022-07-30T08:09:21.773Z,98158.94
2022-07-30T08:13:51.791Z,98171.34
2022-07-30T08:18:13.961Z,98160.88
2022-07-30T08:22:45.316Z,98169.91
2022-07-30T08:26:47.391Z,98176.69
2022-07-30T08:30:49.920Z,98167.09
2022-07-30T08:34:52.818Z,98171.88
2022-07-30T08:38:56.981Z,98171.59
2022-07-30T08:43:00.667Z,98164.59
2022-07-30T08:47:03.903Z,98167.09
2022-07-30T08:51:24.873Z,98178.19
2022-07-30T08:55:49.801Z,98177.13
2022-07-30T08:59:59.083Z,98175.31
2022-07-30T09:04:03.657Z,98177.41
2022-07-30T09:08:08.969Z,98182.34
2022-07-30T09:12:36.261Z,98182.84
2022-07-30T09:16:40.488Z,98189.19
2022-07-30T09:20:42.533Z,98194.94
2022-07-30T09:24:45.559Z,98178.56
2022-07-30T09:29:18.285Z,98180.97
2022-07-30T09:33:55.571Z,98186.56
2022-07-30T09:38:16.831Z,98183.66
2022-07-30T09:42:28.833Z,98176.28
2022-07-30T09:46:48.320Z,98170.78
2022-07-30T09:51:16.022Z,98179.38
2022-07-30T09:55:33.263Z,98173.78
2022-07-30T09:59:35.598Z,98183.66
2022-07-30T10:03:43.510Z,98178.84
2022-07-30T10:08:09.510Z,98184.19
2022-07-30T10:12:24.209Z,98183.50
2022-07-30T10:16:29.759Z,98175.78
2022-07-30T10:20:33.868Z,98177.22
2022-07-30T10:25:05.167Z,98172.72
2022-07-30T10:29:33.749Z,98165.84
2022-07-30T10:33:40.088Z,98164.84
2022-07-30T10:37:46.872Z,98164.28
2022-07-30T10:42:20.268Z,98155.53
2022-07-30T10:46:35.987Z,98159.47
2022-07-30T10:50:59.820Z,98168.31
2022-07-30T10:55:12.887Z,98162.56
2022-07-30T10:59:17.972Z,98159.16
2022-07-30T11:03:23.657Z,98156.84
2022-07-30T11:07:42.941Z,98156.88
2022-07-30T11:12:01.367Z,98154.50
2022-07-30T11:16:08.420Z,98158.66
2022-07-30T11:20:11.721Z,98161.94
2022-07-30T11:24:45.481Z,98149.75
2022-07-30T11:28:49.470Z,98153.66
2022-07-30T11:32:53.806Z,98153.47
2022-07-30T11:37:19.264Z,98148.75
2022-07-30T11:41:25.790Z,98149.53
2022-07-30T11:45:29.498Z,98154.81
2022-07-30T11:49:37.440Z,98143.38
2022-07-30T11:53:39.454Z,98147.75
2022-07-30T11:57:42.404Z,98144.00
2022-07-30T12:01:49.647Z,98151.25
2022-07-30T12:05:53.479Z,98148.19
2022-07-30T12:10:26.753Z,98144.88
2022-07-30T12:14:39.093Z,98141.41
2022-07-30T12:18:41.181Z,98136.94
2022-07-30T12:22:43.973Z,98137.94
2022-07-30T12:26:46.825Z,98141.97
2022-07-30T12:30:50.875Z,98133.56
2022-07-30T12:34:55.831Z,98130.22
2022-07-30T12:38:58.728Z,98129.91
2022-07-30T12:43:00.911Z,98137.16
2022-07-30T12:47:05.303Z,98123.00
2022-07-30T12:51:08.849Z,98132.59
2022-07-30T12:55:12.647Z,98116.41
2022-07-30T12:59:23.902Z,98120.28
2022-07-30T13:03:28.255Z,98115.69
2022-07-30T13:07:32.149Z,98122.06
2022-07-30T13:11:48.764Z,98115.09
2022-07-30T13:15:58.534Z,98116.03
2022-07-30T13:20:00.796Z,98117.38
2022-07-30T13:24:03.103Z,98121.94
2022-07-30T13:28:05.143Z,98120.56
2022-07-30T13:32:07.280Z,98130.47
2022-07-30T13:36:09.552Z,98124.13
2022-07-30T13:40:11.634Z,98130.84
2022-07-30T13:44:13.669Z,98124.97
2022-07-30T13:48:15.815Z,98127.84
2022-07-30T13:52:18.766Z,98132.03
2022-07-30T13:56:21.208Z,98117.91
2022-07-30T14:00:24.743Z,98109.66
2022-07-30T14:04:26.870Z,98109.22
2022-07-30T14:08:31.343Z,98108.38
2022-07-30T14:12:34.606Z,98106.88
2022-07-30T14:16:45.159Z,98088.53
2022-07-30T14:20:49.347Z,98103.97
2022-07-30T14:24:51.416Z,98091.81
2022-07-30T14:28:53.456Z,98107.81
2022-07-30T14:33:00.426Z,98099.25
2022-07-30T14:37:05.308Z,98101.94
2022-07-30T14:41:09.064Z,98100.91
2022-07-30T14:45:11.308Z,98097.34
2022-07-30T14:49:15.672Z,98108.97
2022-07-30T14:53:22.094Z,98104.13
2022-07-30T14:57:24.453Z,98107.31
2022-07-30T15:01:26.515Z,98100.63
2022-07-30T15:05:28.596Z,98095.56
2022-07-30T15:09:30.686Z,98107.34
2022-07-30T15:13:32.721Z,98102.31
2022-07-30T15:17:35.498Z,98093.19
2022-07-30T15:21:37.502Z,98109.88
2022-07-30T15:25:39.784Z,98091.56
2022-07-30T15:29:41.863Z,98101.63
2022-07-30T15:33:44.899Z,98112.41
2022-07-30T15:37:47.167Z,98106.34
2022-07-30T15:41:49.280Z,98103.63
2022-07-30T15:45:55.992Z,98103.28
2022-07-30T15:49:58.657Z,98114.53
2022-07-30T15:54:00.872Z,98109.31
2022-07-30T15:58:03.972Z,98116.28
2022-07-30T16:02:06.492Z,98117.88
2022-07-30T16:06:08.778Z,98110.28
2022-07-30T16:10:10.917Z,98113.75
2022-07-30T16:14:13.066Z,98107.22
2022-07-30T16:18:15.074Z,98096.16
2022-07-30T16:22:22.148Z,98095.25
2022-07-30T16:26:26.220Z,98112.91
2022-07-30T16:30:28.502Z,98097.22
2022-07-30T16:34:30.688Z,98093.34
2022-07-30T16:38:32.721Z,98097.69
2022-07-30T16:42:34.816Z,98100.03
2022-07-30T16:46:38.628Z,98105.66
2022-07-30T16:50:41.498Z,98105.00
2022-07-30T16:54:43.540Z,98097.44
2022-07-30T16:58:46.136Z,98103.59
2022-07-30T17:02:48.207Z,98105.53
2022-07-30T17:06:51.554Z,98098.56
2022-07-30T17:10:54.513Z,98097.94
2022-07-30T17:14:59.315Z,98097.59
2022-07-30T17:19:01.448Z,98106.25
2022-07-30T17:23:12.184Z,98107.72
2022-07-30T17:27:14.302Z,98107.78
2022-07-30T17:31:16.357Z,98111.56
2022-07-30T17:35:18.780Z,98111.03
2022-07-30T17:40:27.149Z,98115.47
2022-07-30T17:43:44.070Z,98113.50
2022-07-30T17:47:46.130Z,98120.53
2022-07-30T17:51:48.154Z,98113.00
2022-07-30T17:55:57.789Z,98121.69
2022-07-30T18:00:01.322Z,98126.16
2022-07-30T18:04:06.677Z,98121.59
2022-07-30T18:08:08.709Z,98137.81
2022-07-30T18:12:10.902Z,98138.00
2022-07-30T18:16:12.967Z,98135.19
2022-07-30T18:20:15.356Z,98138.88
2022-07-30T18:24:17.400Z,98134.94
2022-07-30T18:28:19.498Z,98138.78
2022-07-30T18:32:23.382Z,98142.31
2022-07-30T18:36:25.442Z,98145.44
2022-07-30T18:40:27.888Z,98149.06
2022-07-30T18:44:29.998Z,98154.28
2022-07-30T18:48:32.011Z,98164.84
2022-07-30T18:52:34.378Z,98162.00
2022-07-30T18:56:36.498Z,98169.88
2022-07-30T19:00:39.745Z,98175.22
2022-07-30T19:04:41.925Z,98179.69
2022-07-30T19:08:44.033Z,98182.09
2022-07-30T19:12:46.213Z,98175.97
2022-07-30T19:16:48.728Z,98184.22
2022-07-30T19:20:51.560Z,98186.84
2022-07-30T19:24:54.030Z,98191.13
2022-07-30T19:28:56.246Z,98204.72
2022-07-30T19:33:15.076Z,98205.13
2022-07-30T19:37:17.878Z,98203.34
2022-07-30T19:41:19.896Z,98207.88
2022-07-30T19:45:24.139Z,98219.13
2022-07-30T19:49:29.730Z,98224.81
2022-07-30T19:53:34.181Z,98227.63
2022-07-30T19:57:53.044Z,98236.03
2022-07-30T20:01:56.655Z,98245.25
2022-07-30T20:06:00.141Z,98241.78
2022-07-30T20:10:02.224Z,98242.00
2022-07-30T20:14:05.026Z,98241.59
2022-07-30T20:18:08.205Z,98245.34
2022-07-30T20:22:10.463Z,98242.41
2022-07-30T20:26:15.975Z,98240.34
2022-07-30T20:30:18.109Z,98253.25
2022-07-30T20:34:30.649Z,98247.75
2022-07-30T20:38:35.727Z,98251.16
2022-07-30T20:42:42.740Z,98251.66
2022-07-30T20:46:44.777Z,98250.47
2022-07-30T20:50:49.194Z,98253.84
2022-07-30T20:54:51.443Z,98252.84
2022-07-30T20:58:53.509Z,98248.88
2022-07-30T21:02:57.643Z,98263.78
2022-07-30T21:06:59.721Z,98261.50
2022-07-30T21:11:03.920Z,98248.91
2022-07-30T21:15:23.756Z,98251.66
2022-07-30T21:19:26.442Z,98255.69
2022-07-30T21:23:31.602Z,98257.16
2022-07-30T21:27:35.233Z,98258.84
2022-07-30T21:32:02.119Z,98257.56
2022-07-30T21:36:00.367Z,98253.09
2022-07-30T21:40:03.842Z,98253.31
2022-07-30T21:44:06.142Z,98257.59
2022-07-30T21:48:10.786Z,98264.09
2022-07-30T21:52:13.045Z,98249.81
2022-07-30T21:56:16.221Z,98263.28
2022-07-30T22:00:21.915Z,98268.41
2022-07-30T22:04:24.545Z,98271.50
2022-07-30T22:08:29.483Z,98267.69
2022-07-30T22:12:34.667Z,98262.81
2022-07-30T22:16:38.196Z,98266.25
2022-07-30T22:20:49.193Z,98258.78
2022-07-30T22:24:52.042Z,98256.19
2022-07-30T22:28:54.405Z,98258.09
2022-07-30T22:33:14.242Z,98258.09
2022-07-30T22:37:21.248Z,98251.91
2022-07-30T22:41:23.550Z,98250.31
2022-07-30T22:45:46.826Z,98252.09
2022-07-30T22:49:56.313Z,98251.00
2022-07-30T22:54:12.566Z,98248.16
2022-07-30T22:58:15.059Z,98245.13
2022-07-30T23:02:17.093Z,98244.53
2022-07-30T23:06:20.527Z,98245.00
2022-07-30T23:10:23.012Z,98245.72
2022-07-30T23:14:28.677Z,98247.38
2022-07-30T23:18:30.707Z,98256.00
2022-07-30T23:22:32.723Z,98253.25
2022-07-30T23:26:34.794Z,98251.38
2022-07-30T23:30:36.840Z,98258.38
2022-07-30T23:34:38.883Z,98257.19
2022-07-30T23:38:40.951Z,98255.16
2022-07-30T23:42:43.027Z,98252.19
2022-07-30T23:46:45.085Z,98246.88
2022-07-30T23:50:47.143Z,98250.81
2022-07-30T23:54:49.253Z,98245.00
2022-07-30T23:58:52.114Z,98244.13
